Impacts TAF Board
For situational awareness. Not to be used for flight planning purposes.
IDs:

KSAT - San Antonio Intl, TX, US

Issued at 1740 UTC 06 Jul 2020
Updated at 1817 UTC 06 Jul 2020
Potential Impact None Slight Moderate High
Time1751Z 06/19Z 06/20Z 06/21Z 06/22Z 06/23Z 07/00Z 07/01Z 07/02Z 07/03Z 07/04Z 07/05Z 07/06Z 07/07Z>>
Type OBS PRVL PRVL PRVL PRVL PRVL PRVL PRVL PRVL PRVL PRVL PRVL PRVL PRVL
VIS 10 >6 >6 >6 >6 >6 >6 >6 >6 >6 >6 >6 >6 >6
CIG -- 120 120 120 120 120 120 120 120 120 120 120 120 120
Cover SCT BKN BKN BKN BKN BKN BKN BKN BKN BKN BKN BKN BKN BKN
FltCat VFR VFR VFR VFR VFR VFR VFR VFR VFR VFR VFR VFR VFR VFR
WX -- -- -- -- -- -- -- -- -- -- -- -- -- --
WDir VRB 160 160 160 160 160 160 160 160 160 160 160 160 160
WSpd 0 9 9 9 9 9 9 9 9 9 9 9 9 9
WGst -- -- -- -- -- -- -- -- -- -- -- -- -- --
R04/22
XWnd VRB -8 -8 -8 -8 -8 -8 -8 -8 -8 -8 -8 -8 -8
HWnd VRB -4 -4 -4 -4 -4 -4 -4 -4 -4 -4 -4 -4 -4
R12/30
XWnd VRB -4 -4 -4 -4 -4 -4 -4 -4 -4 -4 -4 -4 -4
HWnd VRB 8 8 8 8 8 8 8 8 8 8 8 8 8
Raw TAF
KSAT 061740Z 0618/0724 16009KT P6SM SCT040 BKN120
  FM070900 17007KT P6SM OVC015
  FM071600 18008KT P6SM SCT040 BKN120


Raw METAR
KSAT 061751Z 00000KT 10SM FEW037 SCT100 SCT250 32/22 A2994 RMK AO2 SLP119 T03220217 10333 20261 50007
KSAT 061651Z 14004KT 10SM SCT032 BKN250 32/22 A2995 RMK AO2 SLP120 T03170222
KSAT 061551Z 16007KT 10SM SCT026 BKN250 30/22 A2994 RMK AO2 SLP118 T03000222 $

METAR Board
Radar Display
Forecast Discussion
For situational awareness. Not to be used for flight planning purposes.